sensor_id;sensor_type;location;lat;lon;timestamp;pressure;altitude;pressure_sealevel;temperature;humidity
19596;BME280;9945;46.010;8.946;2024-03-02T00:01:15;96389.88;;;11.43;100.00
19596;BME280;9945;46.010;8.946;2024-03-02T00:03:43;96386.44;;;11.43;100.00
19596;BME280;9945;46.010;8.946;2024-03-02T00:06:10;96388.72;;;11.46;100.00
19596;BME280;9945;46.010;8.946;2024-03-02T00:08:38;96391.94;;;11.25;100.00
19596;BME280;9945;46.010;8.946;2024-03-02T00:11:05;96385.25;;;11.22;100.00
19596;BME280;9945;46.010;8.946;2024-03-02T00:13:32;96384.44;;;11.22;100.00
19596;BME280;9945;46.010;8.946;2024-03-02T00:16:00;96395.56;;;11.24;100.00
19596;BME280;9945;46.010;8.946;2024-03-02T00:18:31;96391.13;;;11.24;100.00
19596;BME280;9945;46.010;8.946;2024-03-02T00:21:00;96391.13;;;11.24;100.00
19596;BME280;9945;46.010;8.946;2024-03-02T00:23:30;96397.66;;;11.28;100.00
19596;BME280;9945;46.010;8.946;2024-03-02T00:25:58;96402.22;;;11.34;100.00
19596;BME280;9945;46.010;8.946;2024-03-02T00:28:26;96392.59;;;11.27;100.00
19596;BME280;9945;46.010;8.946;2024-03-02T00:30:58;96388.50;;;11.24;100.00
19596;BME280;9945;46.010;8.946;2024-03-02T00:33:27;96390.69;;;11.21;100.00
19596;BME280;9945;46.010;8.946;2024-03-02T00:35:54;96391.59;;;11.28;100.00
19596;BME280;9945;46.010;8.946;2024-03-02T00:38:23;96386.50;;;11.34;100.00
19596;BME280;9945;46.010;8.946;2024-03-02T00:40:50;96388.34;;;11.26;100.00
19596;BME280;9945;46.010;8.946;2024-03-02T00:43:43;96388.16;;;11.27;100.00
19596;BME280;9945;46.010;8.946;2024-03-02T00:46:15;96386.59;;;11.18;100.00
19596;BME280;9945;46.010;8.946;2024-03-02T00:48:48;96384.72;;;11.27;100.00
19596;BME280;9945;46.010;8.946;2024-03-02T00:51:15;96387.63;;;11.32;100.00
19596;BME280;9945;46.010;8.946;2024-03-02T00:53:43;96378.31;;;10.98;100.00
19596;BME280;9945;46.010;8.946;2024-03-02T00:56:11;96384.78;;;10.88;100.00
19596;BME280;9945;46.010;8.946;2024-03-02T00:58:39;96384.34;;;10.68;100.00
19596;BME280;9945;46.010;8.946;2024-03-02T01:01:06;96384.41;;;10.91;100.00
19596;BME280;9945;46.010;8.946;2024-03-02T01:03:33;96377.88;;;10.95;100.00
19596;BME280;9945;46.010;8.946;2024-03-02T01:06:00;96383.19;;;11.10;100.00
19596;BME280;9945;46.010;8.946;2024-03-02T01:08:27;96385.31;;;11.14;100.00
19596;BME280;9945;46.010;8.946;2024-03-02T01:10:56;96379.22;;;11.22;100.00
19596;BME280;9945;46.010;8.946;2024-03-02T01:13:23;96378.88;;;11.17;100.00
19596;BME280;9945;46.010;8.946;2024-03-02T01:15:50;96385.56;;;11.27;100.00
19596;BME280;9945;46.010;8.946;2024-03-02T01:18:17;96387.84;;;11.30;100.00
19596;BME280;9945;46.010;8.946;2024-03-02T01:20:44;96386.66;;;11.33;100.00
19596;BME280;9945;46.010;8.946;2024-03-02T01:23:11;96387.41;;;11.42;100.00
19596;BME280;9945;46.010;8.946;2024-03-02T01:25:38;96390.53;;;11.45;100.00
19596;BME280;9945;46.010;8.946;2024-03-02T01:28:06;96383.97;;;11.41;100.00
19596;BME280;9945;46.010;8.946;2024-03-02T01:30:34;96383.00;;;11.42;100.00
19596;BME280;9945;46.010;8.946;2024-03-02T01:33:00;96385.63;;;11.42;100.00
19596;BME280;9945;46.010;8.946;2024-03-02T01:35:27;96378.72;;;11.18;100.00
19596;BME280;9945;46.010;8.946;2024-03-02T01:37:54;96378.56;;;11.43;100.00
19596;BME280;9945;46.010;8.946;2024-03-02T01:40:21;96368.78;;;11.36;100.00
19596;BME280;9945;46.010;8.946;2024-03-02T01:42:52;96371.56;;;11.12;100.00
19596;BME280;9945;46.010;8.946;2024-03-02T01:45:20;96369.50;;;11.30;100.00
19596;BME280;9945;46.010;8.946;2024-03-02T01:47:47;96370.53;;;11.21;100.00
19596;BME280;9945;46.010;8.946;2024-03-02T01:50:15;96359.22;;;11.21;100.00
19596;BME280;9945;46.010;8.946;2024-03-02T01:52:41;96370.66;;;11.28;100.00
19596;BME280;9945;46.010;8.946;2024-03-02T01:55:09;96366.69;;;11.32;100.00
19596;BME280;9945;46.010;8.946;2024-03-02T01:57:36;96366.34;;;11.35;100.00
19596;BME280;9945;46.010;8.946;2024-03-02T02:00:05;96368.53;;;11.23;100.00
19596;BME280;9945;46.010;8.946;2024-03-02T02:02:36;96364.94;;;11.24;100.00
19596;BME280;9945;46.010;8.946;2024-03-02T02:05:03;96366.94;;;11.22;100.00
19596;BME280;9945;46.010;8.946;2024-03-02T02:07:31;96369.84;;;11.27;100.00
19596;BME280;9945;46.010;8.946;2024-03-02T02:09:58;96370.31;;;11.31;100.00
19596;BME280;9945;46.010;8.946;2024-03-02T02:12:25;96374.03;;;11.36;100.00
19596;BME280;9945;46.010;8.946;2024-03-02T02:14:52;96372.41;;;11.35;100.00
19596;BME280;9945;46.010;8.946;2024-03-02T02:17:19;96366.16;;;11.36;100.00
19596;BME280;9945;46.010;8.946;2024-03-02T02:19:47;96361.09;;;11.35;100.00
19596;BME280;9945;46.010;8.946;2024-03-02T02:22:16;96357.97;;;11.40;100.00
19596;BME280;9945;46.010;8.946;2024-03-02T02:24:45;96359.41;;;11.42;100.00
19596;BME280;9945;46.010;8.946;2024-03-02T02:27:12;96354.66;;;11.46;100.00
19596;BME280;9945;46.010;8.946;2024-03-02T02:29:40;96357.09;;;11.47;100.00
19596;BME280;9945;46.010;8.946;2024-03-02T02:32:07;96349.91;;;11.41;100.00
19596;BME280;9945;46.010;8.946;2024-03-02T02:34:34;96351.72;;;11.41;100.00
19596;BME280;9945;46.010;8.946;2024-03-02T02:37:01;96349.47;;;11.37;100.00
19596;BME280;9945;46.010;8.946;2024-03-02T02:39:29;96347.94;;;11.20;100.00
19596;BME280;9945;46.010;8.946;2024-03-02T02:41:56;96346.75;;;11.23;100.00
19596;BME280;9945;46.010;8.946;2024-03-02T02:44:23;96337.09;;;11.23;100.00
19596;BME280;9945;46.010;8.946;2024-03-02T02:46:50;96334.41;;;11.31;100.00
19596;BME280;9945;46.010;8.946;2024-03-02T02:49:17;96335.22;;;11.32;100.00
19596;BME280;9945;46.010;8.946;2024-03-02T02:51:44;96335.53;;;11.37;100.00
19596;BME280;9945;46.010;8.946;2024-03-02T02:54:11;96333.38;;;11.41;100.00
19596;BME280;9945;46.010;8.946;2024-03-02T02:56:39;96339.97;;;11.36;100.00
19596;BME280;9945;46.010;8.946;2024-03-02T02:59:06;96338.59;;;11.41;100.00
19596;BME280;9945;46.010;8.946;2024-03-02T03:01:33;96333.56;;;11.39;100.00
19596;BME280;9945;46.010;8.946;2024-03-02T03:03:59;96329.94;;;11.40;100.00
19596;BME280;9945;46.010;8.946;2024-03-02T03:06:26;96324.59;;;11.33;100.00
19596;BME280;9945;46.010;8.946;2024-03-02T03:08:53;96320.63;;;11.37;100.00
19596;BME280;9945;46.010;8.946;2024-03-02T03:11:20;96325.88;;;11.37;100.00
19596;BME280;9945;46.010;8.946;2024-03-02T03:13:49;96326.31;;;11.41;100.00
19596;BME280;9945;46.010;8.946;2024-03-02T03:16:16;96321.78;;;11.35;100.00
19596;BME280;9945;46.010;8.946;2024-03-02T03:18:43;96323.66;;;11.26;100.00
19596;BME280;9945;46.010;8.946;2024-03-02T03:21:10;96327.56;;;11.30;100.00
19596;BME280;9945;46.010;8.946;2024-03-02T03:23:37;96326.03;;;11.36;100.00
19596;BME280;9945;46.010;8.946;2024-03-02T03:26:03;96317.09;;;11.30;100.00
19596;BME280;9945;46.010;8.946;2024-03-02T03:28:31;96321.78;;;11.35;100.00
19596;BME280;9945;46.010;8.946;2024-03-02T03:30:59;96328.56;;;11.29;100.00
19596;BME280;9945;46.010;8.946;2024-03-02T03:33:27;96329.38;;;11.30;100.00
19596;BME280;9945;46.010;8.946;2024-03-02T03:35:54;96331.28;;;11.36;100.00
19596;BME280;9945;46.010;8.946;2024-03-02T03:38:21;96330.00;;;11.32;100.00
19596;BME280;9945;46.010;8.946;2024-03-02T03:40:48;96331.63;;;11.33;100.00
19596;BME280;9945;46.010;8.946;2024-03-02T03:43:15;96339.91;;;11.22;100.00
19596;BME280;9945;46.010;8.946;2024-03-02T03:45:41;96327.69;;;11.06;100.00
19596;BME280;9945;46.010;8.946;2024-03-02T03:48:10;96335.38;;;11.08;100.00
19596;BME280;9945;46.010;8.946;2024-03-02T03:50:37;96342.91;;;11.11;100.00
19596;BME280;9945;46.010;8.946;2024-03-02T03:53:04;96344.88;;;11.09;100.00
19596;BME280;9945;46.010;8.946;2024-03-02T03:55:31;96342.09;;;11.10;100.00
19596;BME280;9945;46.010;8.946;2024-03-02T03:57:57;96344.47;;;10.97;100.00
19596;BME280;9945;46.010;8.946;2024-03-02T04:00:24;96341.22;;;11.18;100.00
19596;BME280;9945;46.010;8.946;2024-03-02T04:02:51;96345.53;;;11.11;100.00
19596;BME280;9945;46.010;8.946;2024-03-02T04:05:19;96351.63;;;11.03;100.00
19596;BME280;9945;46.010;8.946;2024-03-02T04:07:46;96346.34;;;11.11;100.00
19596;BME280;9945;46.010;8.946;2024-03-02T04:10:13;96346.69;;;11.08;100.00
19596;BME280;9945;46.010;8.946;2024-03-02T04:12:41;96347.38;;;11.02;100.00
19596;BME280;9945;46.010;8.946;2024-03-02T04:15:08;96353.28;;;11.04;100.00
19596;BME280;9945;46.010;8.946;2024-03-02T04:17:35;96346.94;;;10.90;100.00
19596;BME280;9945;46.010;8.946;2024-03-02T04:20:02;96353.69;;;10.85;100.00
19596;BME280;9945;46.010;8.946;2024-03-02T04:22:34;96355.44;;;10.92;100.00
19596;BME280;9945;46.010;8.946;2024-03-02T04:25:01;96360.34;;;10.95;100.00
19596;BME280;9945;46.010;8.946;2024-03-02T04:27:30;96362.44;;;11.00;100.00
19596;BME280;9945;46.010;8.946;2024-03-02T04:29:58;96366.00;;;10.76;100.00
19596;BME280;9945;46.010;8.946;2024-03-02T04:32:26;96363.75;;;10.65;100.00
19596;BME280;9945;46.010;8.946;2024-03-02T04:34:53;96365.16;;;10.84;100.00
19596;BME280;9945;46.010;8.946;2024-03-02T04:37:20;96366.41;;;10.96;100.00
19596;BME280;9945;46.010;8.946;2024-03-02T04:39:48;96362.38;;;10.85;100.00
19596;BME280;9945;46.010;8.946;2024-03-02T04:42:15;96362.66;;;10.90;100.00
19596;BME280;9945;46.010;8.946;2024-03-02T04:44:42;96362.66;;;10.90;100.00
19596;BME280;9945;46.010;8.946;2024-03-02T04:47:09;96365.16;;;10.84;100.00
19596;BME280;9945;46.010;8.946;2024-03-02T04:49:35;96363.97;;;10.94;100.00
19596;BME280;9945;46.010;8.946;2024-03-02T04:52:03;96366.56;;;10.94;100.00
19596;BME280;9945;46.010;8.946;2024-03-02T04:54:30;96363.47;;;10.91;100.00
19596;BME280;9945;46.010;8.946;2024-03-02T04:56:58;96374.34;;;10.80;100.00
19596;BME280;9945;46.010;8.946;2024-03-02T04:59:25;96370.28;;;10.69;100.00
19596;BME280;9945;46.010;8.946;2024-03-02T05:01:52;96369.63;;;10.67;100.00
19596;BME280;9945;46.010;8.946;2024-03-02T05:04:19;96368.59;;;10.84;100.00
19596;BME280;9945;46.010;8.946;2024-03-02T05:06:46;96379.34;;;10.89;100.00
19596;BME280;9945;46.010;8.946;2024-03-02T05:09:18;96379.22;;;10.83;100.00
19596;BME280;9945;46.010;8.946;2024-03-02T05:11:44;96381.75;;;10.68;100.00
19596;BME280;9945;46.010;8.946;2024-03-02T05:14:37;96378.09;;;10.77;100.00
19596;BME280;9945;46.010;8.946;2024-03-02T05:17:03;96379.03;;;10.92;100.00
19596;BME280;9945;46.010;8.946;2024-03-02T05:19:30;96388.03;;;10.90;100.00
19596;BME280;9945;46.010;8.946;2024-03-02T05:21:57;96383.09;;;10.95;100.00
19596;BME280;9945;46.010;8.946;2024-03-02T05:24:24;96392.91;;;11.01;100.00
19596;BME280;9945;46.010;8.946;2024-03-02T05:26:53;96388.97;;;11.05;100.00
19596;BME280;9945;46.010;8.946;2024-03-02T05:29:20;96391.22;;;11.08;100.00
19596;BME280;9945;46.010;8.946;2024-03-02T05:31:48;96404.31;;;11.08;100.00
19596;BME280;9945;46.010;8.946;2024-03-02T05:34:15;96395.47;;;11.09;100.00
19596;BME280;9945;46.010;8.946;2024-03-02T05:36:42;96404.69;;;11.05;100.00
19596;BME280;9945;46.010;8.946;2024-03-02T05:39:08;96395.63;;;11.08;100.00
19596;BME280;9945;46.010;8.946;2024-03-02T05:41:35;96390.69;;;11.21;100.00
19596;BME280;9945;46.010;8.946;2024-03-02T05:44:04;96388.88;;;11.21;100.00
19596;BME280;9945;46.010;8.946;2024-03-02T05:46:31;96390.41;;;11.08;100.00
19596;BME280;9945;46.010;8.946;2024-03-02T05:48:59;96399.69;;;11.18;100.00
19596;BME280;9945;46.010;8.946;2024-03-02T05:51:26;96399.84;;;11.17;100.00
19596;BME280;9945;46.010;8.946;2024-03-02T05:53:53;96402.31;;;11.18;100.00
19596;BME280;9945;46.010;8.946;2024-03-02T05:56:20;96408.03;;;11.22;100.00
19596;BME280;9945;46.010;8.946;2024-03-02T05:58:47;96405.56;;;11.20;100.00
19596;BME280;9945;46.010;8.946;2024-03-02T06:01:26;96401.16;;;11.21;100.00
19596;BME280;9945;46.010;8.946;2024-03-02T06:03:55;96414.28;;;11.13;100.00
19596;BME280;9945;46.010;8.946;2024-03-02T06:06:23;96414.91;;;11.15;100.00
19596;BME280;9945;46.010;8.946;2024-03-02T06:08:51;96415.13;;;11.13;100.00
19596;BME280;9945;46.010;8.946;2024-03-02T06:11:19;96418.72;;;11.12;100.00
19596;BME280;9945;46.010;8.946;2024-03-02T06:13:46;96419.69;;;11.11;100.00
19596;BME280;9945;46.010;8.946;2024-03-02T06:16:13;96415.94;;;11.14;100.00
19596;BME280;9945;46.010;8.946;2024-03-02T06:18:43;96419.16;;;11.16;100.00
19596;BME280;9945;46.010;8.946;2024-03-02T06:21:10;96418.56;;;11.14;100.00
19596;BME280;9945;46.010;8.946;2024-03-02T06:23:38;96422.13;;;11.21;100.00
19596;BME280;9945;46.010;8.946;2024-03-02T06:26:05;96421.63;;;11.17;100.00
19596;BME280;9945;46.010;8.946;2024-03-02T06:28:32;96430.59;;;11.23;100.00
19596;BME280;9945;46.010;8.946;2024-03-02T06:31:00;96435.72;;;11.16;100.00
19596;BME280;9945;46.010;8.946;2024-03-02T06:33:27;96434.44;;;11.12;100.00
19596;BME280;9945;46.010;8.946;2024-03-02T06:35:54;96428.66;;;11.17;100.00
19596;BME280;9945;46.010;8.946;2024-03-02T06:38:21;96431.13;;;11.18;100.00
19596;BME280;9945;46.010;8.946;2024-03-02T06:40:50;96435.50;;;10.87;100.00
19596;BME280;9945;46.010;8.946;2024-03-02T06:43:17;96433.19;;;10.92;100.00
19596;BME280;9945;46.010;8.946;2024-03-02T06:45:44;96442.75;;;10.77;100.00
19596;BME280;9945;46.010;8.946;2024-03-02T06:48:11;96445.47;;;10.91;100.00
19596;BME280;9945;46.010;8.946;2024-03-02T06:50:38;96442.53;;;10.94;100.00
19596;BME280;9945;46.010;8.946;2024-03-02T06:53:04;96450.50;;;10.54;100.00
19596;BME280;9945;46.010;8.946;2024-03-02T06:55:31;96446.06;;;10.38;100.00
19596;BME280;9945;46.010;8.946;2024-03-02T06:57:59;96450.50;;;10.54;100.00
19596;BME280;9945;46.010;8.946;2024-03-02T07:00:26;96455.69;;;10.70;100.00
19596;BME280;9945;46.010;8.946;2024-03-02T07:02:53;96455.97;;;10.83;100.00
19596;BME280;9945;46.010;8.946;2024-03-02T07:05:20;96466.25;;;10.93;100.00
19596;BME280;9945;46.010;8.946;2024-03-02T07:07:49;96467.44;;;10.82;100.00
19596;BME280;9945;46.010;8.946;2024-03-02T07:10:16;96464.94;;;10.89;100.00
19596;BME280;9945;46.010;8.946;2024-03-02T07:12:43;96468.84;;;11.01;100.00
19596;BME280;9945;46.010;8.946;2024-03-02T07:15:12;96472.28;;;11.02;100.00
19596;BME280;9945;46.010;8.946;2024-03-02T07:17:52;96470.19;;;10.89;100.00
19596;BME280;9945;46.010;8.946;2024-03-02T07:20:19;96473.63;;;10.89;100.00
19596;BME280;9945;46.010;8.946;2024-03-02T07:22:46;96479.03;;;10.96;100.00
19596;BME280;9945;46.010;8.946;2024-03-02T07:25:13;96472.44;;;11.00;100.00
19596;BME280;9945;46.010;8.946;2024-03-02T07:27:40;96471.75;;;11.14;100.00
19596;BME280;9945;46.010;8.946;2024-03-02T07:30:09;96473.22;;;11.17;100.00
19596;BME280;9945;46.010;8.946;2024-03-02T07:32:38;96488.78;;;11.10;100.00
19596;BME280;9945;46.010;8.946;2024-03-02T07:35:07;96479.06;;;11.27;100.00
19596;BME280;9945;46.010;8.946;2024-03-02T07:37:34;96478.72;;;11.30;100.00
19596;BME280;9945;46.010;8.946;2024-03-02T07:40:01;96489.69;;;11.33;100.00
19596;BME280;9945;46.010;8.946;2024-03-02T07:42:28;96486.72;;;11.36;100.00
19596;BME280;9945;46.010;8.946;2024-03-02T07:44:55;96490.63;;;11.41;100.00
19596;BME280;9945;46.010;8.946;2024-03-02T07:47:21;96491.75;;;11.46;100.00
19596;BME280;9945;46.010;8.946;2024-03-02T07:49:50;96482.91;;;11.47;100.00
19596;BME280;9945;46.010;8.946;2024-03-02T07:52:17;96493.47;;;11.31;100.00
19596;BME280;9945;46.010;8.946;2024-03-02T07:54:43;96490.53;;;11.26;100.00
19596;BME280;9945;46.010;8.946;2024-03-02T07:57:10;96497.25;;;11.28;100.00
19596;BME280;9945;46.010;8.946;2024-03-02T07:59:38;96500.16;;;11.33;100.00
19596;BME280;9945;46.010;8.946;2024-03-02T08:02:05;96502.63;;;11.35;100.00
19596;BME280;9945;46.010;8.946;2024-03-02T08:04:32;96506.06;;;11.35;100.00
19596;BME280;9945;46.010;8.946;2024-03-02T08:07:01;96504.50;;;11.49;100.00
19596;BME280;9945;46.010;8.946;2024-03-02T08:09:28;96498.03;;;11.37;100.00
19596;BME280;9945;46.010;8.946;2024-03-02T08:11:55;96505.00;;;11.53;100.00
19596;BME280;9945;46.010;8.946;2024-03-02T08:14:23;96504.06;;;11.46;100.00
19596;BME280;9945;46.010;8.946;2024-03-02T08:16:50;96511.25;;;11.44;100.00
19596;BME280;9945;46.010;8.946;2024-03-02T08:19:17;96512.91;;;11.45;100.00
19596;BME280;9945;46.010;8.946;2024-03-02T08:21:44;96513.97;;;11.58;100.00
19596;BME280;9945;46.010;8.946;2024-03-02T08:24:12;96525.63;;;11.09;100.00
19596;BME280;9945;46.010;8.946;2024-03-02T08:26:39;96525.00;;;10.90;100.00
19596;BME280;9945;46.010;8.946;2024-03-02T08:29:06;96525.38;;;10.87;100.00
19596;BME280;9945;46.010;8.946;2024-03-02T08:31:33;96526.16;;;11.04;100.00
19596;BME280;9945;46.010;8.946;2024-03-02T08:33:59;96528.34;;;11.23;100.00
19596;BME280;9945;46.010;8.946;2024-03-02T08:36:27;96527.06;;;11.27;100.00
19596;BME280;9945;46.010;8.946;2024-03-02T08:38:54;96526.81;;;11.45;100.00
19596;BME280;9945;46.010;8.946;2024-03-02T08:41:22;96531.25;;;11.45;100.00
19596;BME280;9945;46.010;8.946;2024-03-02T08:43:49;96533.97;;;11.59;100.00
19596;BME280;9945;46.010;8.946;2024-03-02T08:46:16;96529.41;;;11.53;100.00
19596;BME280;9945;46.010;8.946;2024-03-02T08:48:43;96535.31;;;11.55;100.00
19596;BME280;9945;46.010;8.946;2024-03-02T08:51:10;96536.13;;;11.56;100.00
19596;BME280;9945;46.010;8.946;2024-03-02T08:53:37;96535.47;;;11.54;100.00
19596;BME280;9945;46.010;8.946;2024-03-02T08:56:05;96533.97;;;11.59;100.00
19596;BME280;9945;46.010;8.946;2024-03-02T08:58:33;96543.47;;;11.60;100.00
19596;BME280;9945;46.010;8.946;2024-03-02T09:01:00;96537.72;;;11.65;100.00
19596;BME280;9945;46.010;8.946;2024-03-02T09:03:27;96537.34;;;11.68;100.00
19596;BME280;9945;46.010;8.946;2024-03-02T09:05:54;96540.34;;;11.65;100.00
19596;BME280;9945;46.010;8.946;2024-03-02T09:08:21;96543.28;;;11.62;100.00
19596;BME280;9945;46.010;8.946;2024-03-02T09:10:48;96535.09;;;11.65;100.00
19596;BME280;9945;46.010;8.946;2024-03-02T09:13:14;96542.63;;;11.60;100.00
19596;BME280;9945;46.010;8.946;2024-03-02T09:15:43;96546.03;;;11.37;100.00
19596;BME280;9945;46.010;8.946;2024-03-02T09:18:10;96551.44;;;11.36;100.00
19596;BME280;9945;46.010;8.946;2024-03-02T09:20:37;96555.34;;;11.32;100.00
19596;BME280;9945;46.010;8.946;2024-03-02T09:23:04;96559.19;;;11.21;100.00
19596;BME280;9945;46.010;8.946;2024-03-02T09:25:31;96560.28;;;11.35;100.00
19596;BME280;9945;46.010;8.946;2024-03-02T09:27:58;96556.47;;;11.46;100.00
19596;BME280;9945;46.010;8.946;2024-03-02T09:30:24;96556.34;;;11.39;100.00
19596;BME280;9945;46.010;8.946;2024-03-02T09:32:53;96556.16;;;11.41;100.00
19596;BME280;9945;46.010;8.946;2024-03-02T09:35:20;96563.84;;;11.42;100.00
19596;BME280;9945;46.010;8.946;2024-03-02T09:37:47;96553.75;;;11.70;100.00
19596;BME280;9945;46.010;8.946;2024-03-02T09:40:14;96553.91;;;11.77;100.00
19596;BME280;9945;46.010;8.946;2024-03-02T09:42:42;96557.81;;;11.81;100.00
19596;BME280;9945;46.010;8.946;2024-03-02T09:45:09;96550.56;;;11.91;100.00
19596;BME280;9945;46.010;8.946;2024-03-02T09:47:36;96549.53;;;11.61;100.00
19596;BME280;9945;46.010;8.946;2024-03-02T09:50:06;96560.25;;;11.90;100.00
19596;BME280;9945;46.010;8.946;2024-03-02T09:52:34;96559.75;;;11.87;100.00
19596;BME280;9945;46.010;8.946;2024-03-02T09:55:02;96558.00;;;11.79;100.00
19596;BME280;9945;46.010;8.946;2024-03-02T09:57:31;96556.59;;;11.52;100.00
19596;BME280;9945;46.010;8.946;2024-03-02T09:59:58;96557.50;;;11.75;100.00
19596;BME280;9945;46.010;8.946;2024-03-02T10:02:24;96558.16;;;11.69;100.00
19596;BME280;9945;46.010;8.946;2024-03-02T10:04:51;96551.41;;;11.83;100.00
19596;BME280;9945;46.010;8.946;2024-03-02T10:07:20;96555.00;;;11.90;100.00
19596;BME280;9945;46.010;8.946;2024-03-02T10:09:48;96545.38;;;12.05;100.00
19596;BME280;9945;46.010;8.946;2024-03-02T10:12:18;96554.19;;;12.12;100.00
19596;BME280;9945;46.010;8.946;2024-03-02T10:14:45;96554.03;;;12.14;100.00
19596;BME280;9945;46.010;8.946;2024-03-02T10:17:14;96547.25;;;11.97;100.00
19596;BME280;9945;46.010;8.946;2024-03-02T10:19:41;96549.81;;;12.05;100.00
19596;BME280;9945;46.010;8.946;2024-03-02T10:22:10;96549.72;;;12.21;100.00
19596;BME280;9945;46.010;8.946;2024-03-02T10:24:39;96548.78;;;12.14;100.00
19596;BME280;9945;46.010;8.946;2024-03-02T10:27:08;96552.56;;;12.11;100.00
19596;BME280;9945;46.010;8.946;2024-03-02T10:29:39;96553.66;;;12.17;100.00
19596;BME280;9945;46.010;8.946;2024-03-02T10:32:08;96562.72;;;11.84;100.00
19596;BME280;9945;46.010;8.946;2024-03-02T10:34:36;96559.31;;;12.06;100.00
19596;BME280;9945;46.010;8.946;2024-03-02T10:37:05;96565.69;;;11.81;100.00
19596;BME280;9945;46.010;8.946;2024-03-02T10:39:34;96558.56;;;11.97;100.00
19596;BME280;9945;46.010;8.946;2024-03-02T10:42:04;96570.38;;;11.93;100.00
19596;BME280;9945;46.010;8.946;2024-03-02T10:44:32;96566.88;;;12.01;100.00
19596;BME280;9945;46.010;8.946;2024-03-02T10:47:01;96569.06;;;11.97;100.00
19596;BME280;9945;46.010;8.946;2024-03-02T10:49:29;96558.81;;;11.80;100.00
19596;BME280;9945;46.010;8.946;2024-03-02T10:51:57;96560.19;;;11.98;100.00
19596;BME280;9945;46.010;8.946;2024-03-02T10:54:25;96564.31;;;11.93;100.00
19596;BME280;9945;46.010;8.946;2024-03-02T10:56:55;96558.84;;;12.02;100.00
19596;BME280;9945;46.010;8.946;2024-03-02T10:59:30;96556.91;;;11.96;100.00
19596;BME280;9945;46.010;8.946;2024-03-02T11:02:00;96557.69;;;12.05;100.00
19596;BME280;9945;46.010;8.946;2024-03-02T11:04:28;96554.03;;;12.14;100.00
19596;BME280;9945;46.010;8.946;2024-03-02T11:06:59;96553.22;;;12.13;100.00
19596;BME280;9945;46.010;8.946;2024-03-02T11:09:28;96563.06;;;12.11;100.00
19596;BME280;9945;46.010;8.946;2024-03-02T11:12:02;96559.66;;;12.03;100.00
19596;BME280;9945;46.010;8.946;2024-03-02T11:14:31;96554.59;;;12.01;100.00
19596;BME280;9945;46.010;8.946;2024-03-02T11:17:00;96556.06;;;12.04;100.00
19596;BME280;9945;46.010;8.946;2024-03-02T11:19:29;96543.59;;;12.06;100.00
19596;BME280;9945;46.010;8.946;2024-03-02T11:21:57;96546.00;;;12.16;100.00
19596;BME280;9945;46.010;8.946;2024-03-02T11:24:29;96543.91;;;12.26;100.00
19596;BME280;9945;46.010;8.946;2024-03-02T11:26:59;96546.22;;;12.06;100.00
19596;BME280;9945;46.010;8.946;2024-03-02T11:29:47;96542.31;;;12.25;100.00
19596;BME280;9945;46.010;8.946;2024-03-02T11:32:19;96542.31;;;12.25;100.00
19596;BME280;9945;46.010;8.946;2024-03-02T11:34:48;96548.66;;;12.30;100.00
19596;BME280;9945;46.010;8.946;2024-03-02T11:37:17;96541.19;;;12.19;100.00
19596;BME280;9945;46.010;8.946;2024-03-02T11:39:45;96541.31;;;12.26;100.00
19596;BME280;9945;46.010;8.946;2024-03-02T11:42:12;96538.97;;;12.31;100.00
19596;BME280;9945;46.010;8.946;2024-03-02T11:44:43;96539.91;;;12.15;100.00
19596;BME280;9945;46.010;8.946;2024-03-02T11:47:13;96538.97;;;12.08;100.00
19596;BME280;9945;46.010;8.946;2024-03-02T11:49:42;96532.50;;;12.19;100.00
19596;BME280;9945;46.010;8.946;2024-03-02T11:52:11;96529.81;;;12.27;100.00
19596;BME280;9945;46.010;8.946;2024-03-02T11:54:40;96531.09;;;12.31;100.00
19596;BME280;9945;46.010;8.946;2024-03-02T11:57:12;96517.00;;;12.32;100.00
19596;BME280;9945;46.010;8.946;2024-03-02T11:59:40;96514.13;;;12.41;100.00
19596;BME280;9945;46.010;8.946;2024-03-02T12:02:15;96503.91;;;12.46;100.00
19596;BME280;9945;46.010;8.946;2024-03-02T12:04:43;96503.50;;;12.58;100.00
19596;BME280;9945;46.010;8.946;2024-03-02T12:07:12;96498.75;;;12.53;100.00
19596;BME280;9945;46.010;8.946;2024-03-02T12:09:39;96501.09;;;12.48;100.00
19596;BME280;9945;46.010;8.946;2024-03-02T12:12:07;96502.75;;;12.49;100.00
19596;BME280;9945;46.010;8.946;2024-03-02T12:14:35;96495.75;;;12.41;100.00
19596;BME280;9945;46.010;8.946;2024-03-02T12:17:03;96494.88;;;12.26;100.00
19596;BME280;9945;46.010;8.946;2024-03-02T12:19:32;96497.41;;;12.20;100.00
19596;BME280;9945;46.010;8.946;2024-03-02T12:22:00;96489.81;;;12.25;100.00
19596;BME280;9945;46.010;8.946;2024-03-02T12:24:28;96486.44;;;12.16;100.00
19596;BME280;9945;46.010;8.946;2024-03-02T12:26:56;96493.03;;;12.12;100.00
19596;BME280;9945;46.010;8.946;2024-03-02T12:29:23;96486.25;;;12.18;100.00
19596;BME280;9945;46.010;8.946;2024-03-02T12:31:52;96491.97;;;12.21;100.00
19596;BME280;9945;46.010;8.946;2024-03-02T12:34:19;96485.91;;;12.21;100.00
19596;BME280;9945;46.010;8.946;2024-03-02T12:36:47;96478.97;;;12.28;100.00
19596;BME280;9945;46.010;8.946;2024-03-02T12:39:16;96479.88;;;12.35;100.00
19596;BME280;9945;46.010;8.946;2024-03-02T12:41:45;96482.13;;;12.23;100.00
19596;BME280;9945;46.010;8.946;2024-03-02T12:44:12;96475.13;;;12.16;100.00
19596;BME280;9945;46.010;8.946;2024-03-02T12:46:39;96467.94;;;12.32;100.00
19596;BME280;9945;46.010;8.946;2024-03-02T12:49:08;96467.41;;;12.37;100.00
19596;BME280;9945;46.010;8.946;2024-03-02T12:51:36;96467.53;;;12.21;100.00
19596;BME280;9945;46.010;8.946;2024-03-02T12:54:05;96461.84;;;11.94;100.00
19596;BME280;9945;46.010;8.946;2024-03-02T12:56:32;96462.88;;;12.08;100.00
19596;BME280;9945;46.010;8.946;2024-03-02T12:58:59;96459.16;;;12.02;100.00
19596;BME280;9945;46.010;8.946;2024-03-02T13:01:26;96452.03;;;12.11;100.00
19596;BME280;9945;46.010;8.946;2024-03-02T13:03:53;96452.13;;;12.18;100.00